createdAt,value
2017-09-08T00:03:18.927Z,31.9
2017-09-08T00:14:19.368Z,31.8
2017-09-08T00:25:18.927Z,31.5
2017-09-08T00:36:18.615Z,31.9
2017-09-08T00:47:18.433Z,31.2
2017-09-08T00:58:19.063Z,31.1
2017-09-08T01:09:19.083Z,31.3
2017-09-08T01:20:19.018Z,30.7
2017-09-08T01:31:18.925Z,30.5
2017-09-08T01:42:19.560Z,30.5
2017-09-08T01:53:18.898Z,31.9
2017-09-08T02:04:18.853Z,31.8
2017-09-08T02:15:19.530Z,32.3
2017-09-08T02:26:18.540Z,33.1
2017-09-08T02:37:18.885Z,33.4
2017-09-08T02:48:19.106Z,34
2017-09-08T02:59:19.392Z,34
2017-09-08T03:10:19.046Z,34.9
2017-09-08T03:21:18.926Z,35.2
2017-09-08T03:32:18.912Z,35.5
2017-09-08T03:43:19.253Z,35.6
2017-09-08T03:54:19.224Z,36.2
2017-09-08T04:05:20.281Z,36.5
2017-09-08T04:16:19.678Z,36.9
2017-09-08T04:27:18.523Z,37.1
2017-09-08T04:38:19.522Z,37.1
2017-09-08T04:49:18.627Z,37.1
2017-09-08T05:00:19.477Z,37.2
2017-09-08T05:11:19.223Z,36
2017-09-08T05:22:19.615Z,36.2
2017-09-08T05:33:18.389Z,35.5
2017-09-08T05:44:19.187Z,35.7
2017-09-08T05:55:19.370Z,35.5
2017-09-08T06:06:19.202Z,35.2
2017-09-08T06:17:19.666Z,34.6
2017-09-08T06:28:18.631Z,34.4
2017-09-08T06:39:19.096Z,34.6
2017-09-08T06:50:19.733Z,34.6
2017-09-08T07:01:19.244Z,33.8
2017-09-08T07:12:19.494Z,34.2
2017-09-08T07:23:19.096Z,34.2
2017-09-08T07:34:19.474Z,33.4
2017-09-08T07:45:19.759Z,34.2
2017-09-08T07:56:19.646Z,33.8
2017-09-08T08:07:18.492Z,33.7
2017-09-08T08:18:19.576Z,34
2017-09-08T08:29:19.172Z,33.2
2017-09-08T08:40:19.024Z,33.4
2017-09-08T08:51:19.775Z,33.4
2017-09-08T09:02:18.799Z,33.3
2017-09-08T09:13:18.708Z,33.4
2017-09-08T09:24:19.190Z,33.2
2017-09-08T09:35:20.024Z,32.5
2017-09-08T09:46:18.922Z,32.4
2017-09-08T09:57:19.883Z,32.7
2017-09-08T10:08:19.242Z,32.6
2017-09-08T10:19:19.846Z,32.7
2017-09-08T10:30:19.324Z,34.2
2017-09-08T10:41:19.402Z,34
2017-09-08T10:52:18.720Z,34.6
2017-09-08T11:03:19.436Z,33.8
2017-09-08T11:14:19.026Z,34.6
2017-09-08T11:25:18.582Z,34.9
2017-09-08T11:36:19.412Z,34.7
2017-09-08T11:47:18.957Z,34.4
2017-09-08T11:58:19.429Z,35.9
2017-09-08T12:09:18.881Z,35.4
2017-09-08T12:20:19.469Z,35.2
2017-09-08T12:31:19.281Z,36
2017-09-08T12:42:18.970Z,36.1
2017-09-08T12:53:19.058Z,44.3
2017-09-08T13:04:18.674Z,36.4
2017-09-08T13:15:20.091Z,36.6
2017-09-08T13:26:19.447Z,37.7
2017-09-08T13:37:19.308Z,37
2017-09-08T13:48:18.903Z,37.6
2017-09-08T13:59:19.370Z,37.5
2017-09-08T14:10:19.590Z,37.9
2017-09-08T14:21:18.779Z,37.7
2017-09-08T14:32:18.824Z,37.7
2017-09-08T14:43:19.270Z,37.5
2017-09-08T14:54:19.237Z,38.3
2017-09-08T15:05:18.537Z,37.8
2017-09-08T15:16:20.900Z,43
2017-09-08T15:27:18.580Z,38.4
2017-09-08T15:38:19.612Z,37
2017-09-08T15:49:19.758Z,37.5
2017-09-08T16:00:19.916Z,38.7
2017-09-08T16:11:18.888Z,37.9
2017-09-08T16:22:19.312Z,37.9
2017-09-08T16:33:19.203Z,38.2
2017-09-08T16:44:18.794Z,38.2
2017-09-08T16:55:18.504Z,38
2017-09-08T17:06:19.379Z,38.4
2017-09-08T17:17:19.065Z,38.9
2017-09-08T17:28:19.208Z,38.5
2017-09-08T17:39:18.366Z,39
2017-09-08T17:50:18.898Z,38.7
2017-09-08T18:01:18.840Z,39
2017-09-08T18:12:19.480Z,38.5
2017-09-08T18:23:18.917Z,38.6
2017-09-08T18:34:19.218Z,38.7
2017-09-08T18:45:18.393Z,38.8
2017-09-08T18:56:20.071Z,39.2
2017-09-08T19:07:19.098Z,39.3
2017-09-08T19:18:19.228Z,38.5
2017-09-08T19:29:19.408Z,38.9
2017-09-08T19:40:18.668Z,38.9
2017-09-08T19:51:18.703Z,38.8
2017-09-08T20:02:19.230Z,39.3
2017-09-08T20:13:18.918Z,39.3
2017-09-08T20:24:19.049Z,39.3
2017-09-08T20:35:19.162Z,39.7
2017-09-08T20:46:18.740Z,39.4
2017-09-08T20:57:19.200Z,39.3
2017-09-08T21:08:18.788Z,39.3
2017-09-08T21:19:18.564Z,39.5
2017-09-08T21:30:19.535Z,39.3
2017-09-08T21:41:18.768Z,39.4
2017-09-08T21:52:18.795Z,39.3
2017-09-08T22:03:19.029Z,39.5
2017-09-08T22:14:18.950Z,39.8
2017-09-08T22:25:19.082Z,39.5
2017-09-08T22:36:18.831Z,39.5
2017-09-08T22:47:19.646Z,39.4
2017-09-08T22:58:18.703Z,40.1
2017-09-08T23:09:18.753Z,39.7
2017-09-08T23:20:19.497Z,39.6
2017-09-08T23:31:18.744Z,39.5
2017-09-08T23:42:18.807Z,39.7
2017-09-08T23:53:18.872Z,40
